Time;durP1;ratioP1;P1;durP2;ratioP2;P2;SDS_P1;SDS_P2;PMS_P1;PMS_P2;Temp;Humidity;BMP_temperature;BMP_pressure;BME280_temperature;BME280_humidity;BME280_pressure;Samples;Min_cycle;Max_cycle;Signal;HPM_P1;HPM_P2
2023/05/21 00:00:59;;;;;;;9.45;3.75;;;19.10;76.30;;;;;;6183882;23;20092;-73
2023/05/21 00:03:28;;;;;;;7.53;3.50;;;19.10;76.40;;;;;;6184101;23;20021;-73
2023/05/21 00:05:54;;;;;;;7.78;3.67;;;19.10;76.30;;;;;;6184899;23;20008;-73
2023/05/21 00:08:20;;;;;;;8.35;4.20;;;19.10;76.60;;;;;;6157672;23;20351;-74
2023/05/21 00:10:46;;;;;;;7.05;3.63;;;19.00;76.30;;;;;;6183169;23;20056;-75
2023/05/21 00:13:11;;;;;;;7.57;3.78;;;19.00;76.50;;;;;;6183817;23;20009;-74
2023/05/21 00:15:38;;;;;;;7.47;3.72;;;19.00;76.50;;;;;;6157479;23;20005;-74
2023/05/21 00:18:04;;;;;;;8.30;3.58;;;19.00;76.80;;;;;;6184187;23;20084;-73
2023/05/21 00:20:31;;;;;;;10.73;3.63;;;19.00;76.80;;;;;;6183255;23;20005;-75
2023/05/21 00:22:57;;;;;;;6.57;3.80;;;19.00;76.80;;;;;;6183620;23;20367;-74
2023/05/21 00:25:23;;;;;;;9.20;3.83;;;19.00;77.00;;;;;;6183704;23;19997;-74
2023/05/21 00:27:49;;;;;;;7.70;3.78;;;19.00;77.30;;;;;;6183540;23;20020;-73
2023/05/21 00:30:15;;;;;;;8.35;3.70;;;18.90;77.60;;;;;;6183791;23;20016;-74
2023/05/21 00:32:41;;;;;;;9.38;3.92;;;18.90;77.80;;;;;;6183576;23;20400;-75
2023/05/21 00:35:07;;;;;;;6.60;3.45;;;18.80;78.40;;;;;;6157012;23;20047;-74
2023/05/21 00:37:33;;;;;;;6.72;3.65;;;18.80;78.60;;;;;;6183544;23;20005;-74
2023/05/21 00:40:00;;;;;;;6.50;3.60;;;18.80;78.40;;;;;;6183826;23;20004;-73
2023/05/21 00:42:26;;;;;;;9.90;3.60;;;18.70;78.60;;;;;;6183971;23;20008;-74
2023/05/21 00:44:53;;;;;;;11.32;3.95;;;18.70;78.90;;;;;;6183604;23;20335;-74
2023/05/21 00:47:20;;;;;;;7.65;3.50;;;18.70;79.00;;;;;;6184312;23;20343;-74
2023/05/21 00:49:47;;;;;;;7.38;3.75;;;18.70;79.20;;;;;;6183735;23;20009;-74
2023/05/21 00:52:19;;;;;;;9.00;3.38;;;18.70;79.20;;;;;;6157021;23;20391;-74
2023/05/21 00:54:46;;;;;;;8.18;3.17;;;18.70;79.30;;;;;;6183292;23;20084;-75
2023/05/21 00:57:12;;;;;;;6.65;3.22;;;18.70;79.10;;;;;;6183351;23;20322;-75
2023/05/21 00:59:38;;;;;;;9.00;3.70;;;18.70;78.90;;;;;;6183758;23;20334;-75
2023/05/21 01:02:05;;;;;;;10.80;4.07;;;18.70;79.00;;;;;;6183428;23;19997;-75
2023/05/21 01:04:31;;;;;;;6.30;3.75;;;18.70;78.90;;;;;;6183345;23;20025;-74
2023/05/21 01:06:57;;;;;;;8.05;3.38;;;18.70;78.90;;;;;;6183583;23;20023;-73
2023/05/21 01:09:27;;;;;;;7.05;3.30;;;18.60;79.20;;;;;;6184890;23;20005;-74
2023/05/21 01:11:53;;;;;;;6.15;3.30;;;18.70;79.50;;;;;;6185134;23;20001;-75
2023/05/21 01:14:21;;;;;;;7.85;3.17;;;18.60;79.70;;;;;;6185383;23;20001;-74
2023/05/21 01:16:48;;;;;;;9.50;3.67;;;18.60;79.90;;;;;;6185389;23;20332;-74
2023/05/21 01:19:20;;;;;;;9.82;3.83;;;18.60;80.40;;;;;;6185186;23;20016;-74
2023/05/21 01:21:51;;;;;;;8.55;3.70;;;18.60;80.80;;;;;;6158675;23;20005;-74
2023/05/21 01:24:17;;;;;;;8.68;3.70;;;18.50;81.10;;;;;;6185446;23;20036;-74
2023/05/21 01:26:45;;;;;;;6.93;3.55;;;18.40;80.90;;;;;;6185664;23;19997;-74
2023/05/21 01:29:12;;;;;;;5.90;3.50;;;18.40;81.40;;;;;;6158742;23;20017;-74
2023/05/21 01:32:04;;;;;;;7.65;3.75;;;18.30;82.00;;;;;;6185428;23;20009;-73
2023/05/21 01:34:44;;;;;;;7.30;3.85;;;18.20;82.90;;;;;;6186355;23;20009;-73
2023/05/21 01:37:27;;;;;;;6.97;3.78;;;18.10;82.80;;;;;;6189655;23;20164;-73
2023/05/21 01:40:02;;;;;;;7.63;3.75;;;18.10;83.40;;;;;;6190388;23;20029;-72
2023/05/21 01:42:29;;;;;;;7.63;4.28;;;18.20;83.60;;;;;;6183278;23;20009;-75
2023/05/21 01:44:58;;;;;;;9.13;3.83;;;18.10;83.70;;;;;;6208079;23;19985;-75
2023/05/21 01:47:26;;;;;;;8.20;4.25;;;18.10;83.90;;;;;;6185234;23;20012;-74
2023/05/21 01:49:52;;;;;;;8.80;4.90;;;18.10;84.40;;;;;;6185013;23;20489;-74
2023/05/21 01:52:18;;;;;;;8.40;4.70;;;18.20;84.80;;;;;;6184803;23;20033;-75
2023/05/21 01:54:44;;;;;;;8.25;4.20;;;18.10;85.10;;;;;;6185210;23;20068;-75
2023/05/21 01:57:10;;;;;;;10.88;4.20;;;18.10;85.70;;;;;;6185253;23;20084;-74
2023/05/21 01:59:36;;;;;;;11.82;4.47;;;18.10;86.00;;;;;;6185199;23;20068;-73
2023/05/21 02:02:02;;;;;;;7.55;4.35;;;18.10;86.10;;;;;;6158204;23;20005;-74
2023/05/21 02:04:27;;;;;;;9.65;4.65;;;18.00;86.20;;;;;;6186166;23;20044;-74
2023/05/21 02:06:53;;;;;;;9.70;4.35;;;18.00;86.20;;;;;;6186486;23;20006;-74
2023/05/21 02:09:19;;;;;;;10.00;4.00;;;18.00;86.30;;;;;;6197756;23;20009;-74
2023/05/21 02:11:45;;;;;;;9.43;3.90;;;18.10;86.50;;;;;;6209309;23;19981;-74
2023/05/21 02:14:12;;;;;;;7.25;4.05;;;18.00;86.20;;;;;;6198343;23;20072;-75
2023/05/21 02:16:38;;;;;;;8.82;4.05;;;18.00;86.10;;;;;;6185056;23;20428;-75
2023/05/21 02:19:05;;;;;;;12.35;4.43;;;18.00;86.50;;;;;;6184371;23;20339;-74
2023/05/21 02:21:31;;;;;;;8.27;4.13;;;18.10;86.70;;;;;;6184737;23;20031;-74
2023/05/21 02:23:56;;;;;;;7.35;4.18;;;18.00;86.50;;;;;;6184612;23;20001;-73
2023/05/21 02:26:22;;;;;;;11.38;3.70;;;18.00;86.60;;;;;;6184927;23;20308;-74
2023/05/21 02:28:48;;;;;;;9.30;3.88;;;18.10;86.70;;;;;;6184978;23;20009;-75
2023/05/21 02:31:14;;;;;;;9.52;3.70;;;18.00;86.40;;;;;;6184777;23;20363;-73
2023/05/21 02:33:40;;;;;;;8.05;3.72;;;18.00;86.40;;;;;;6184269;23;20016;-75
2023/05/21 02:36:11;;;;;;;11.00;4.25;;;18.10;86.60;;;;;;6184806;23;19998;-73
2023/05/21 02:38:39;;;;;;;8.30;3.65;;;18.10;86.50;;;;;;6195833;23;20020;-73
2023/05/21 02:41:06;;;;;;;6.63;3.92;;;18.10;86.90;;;;;;6208661;23;20001;-74
2023/05/21 02:43:31;;;;;;;10.80;4.10;;;18.00;86.80;;;;;;6188778;23;20344;-74
2023/05/21 02:45:57;;;;;;;8.10;3.88;;;18.00;87.00;;;;;;6158411;23;20047;-73
2023/05/21 02:48:23;;;;;;;6.82;4.07;;;18.10;87.10;;;;;;6184630;23;20391;-74
2023/05/21 02:50:48;;;;;;;8.65;3.72;;;18.00;86.80;;;;;;6184026;23;20530;-73
2023/05/21 02:53:15;;;;;;;8.75;4.00;;;18.00;86.70;;;;;;6184065;23;20454;-74
2023/05/21 02:55:41;;;;;;;8.85;4.10;;;18.10;86.90;;;;;;6184206;23;20008;-74
2023/05/21 02:58:06;;;;;;;9.32;4.00;;;18.10;86.90;;;;;;6184727;23;20399;-73
2023/05/21 03:00:32;;;;;;;9.18;4.68;;;18.10;87.10;;;;;;6184413;23;20021;-73
2023/05/21 03:02:58;;;;;;;8.35;4.30;;;18.10;87.20;;;;;;6183851;23;20024;-74
2023/05/21 03:05:23;;;;;;;10.20;4.80;;;18.10;87.50;;;;;;6184296;23;20042;-73
2023/05/21 03:07:49;;;;;;;9.88;4.32;;;18.00;87.80;;;;;;6183819;23;20028;-72
2023/05/21 03:10:15;;;;;;;9.63;4.63;;;18.00;87.90;;;;;;6184709;23;20024;-75
2023/05/21 03:12:41;;;;;;;9.20;4.60;;;18.00;88.10;;;;;;6183354;23;20005;-74
2023/05/21 03:15:07;;;;;;;8.45;4.45;;;17.90;88.40;;;;;;6183819;23;20011;-74
2023/05/21 03:17:33;;;;;;;8.40;4.18;;;17.90;88.70;;;;;;6183931;23;20008;-74
2023/05/21 03:19:58;;;;;;;6.40;3.70;;;17.90;89.00;;;;;;6184000;23;20005;-73
2023/05/21 03:22:24;;;;;;;8.60;4.55;;;17.90;89.00;;;;;;6184371;23;20005;-74
2023/05/21 03:24:50;;;;;;;7.80;4.07;;;17.90;89.20;;;;;;6184110;23;20004;-74
2023/05/21 03:27:16;;;;;;;9.98;4.78;;;17.90;89.30;;;;;;6183590;23;20021;-73
2023/05/21 03:29:42;;;;;;;10.88;4.60;;;17.90;89.40;;;;;;6183893;23;20122;-74
2023/05/21 03:32:07;;;;;;;8.48;4.38;;;17.90;89.50;;;;;;6156706;23;20086;-74
2023/05/21 03:34:33;;;;;;;12.02;4.97;;;17.90;89.90;;;;;;6183870;23;20010;-73
2023/05/21 03:36:59;;;;;;;9.15;5.53;;;17.80;90.00;;;;;;6184131;23;20036;-74
2023/05/21 03:39:25;;;;;;;11.45;4.38;;;17.70;90.50;;;;;;6184251;23;20001;-74
2023/05/21 03:41:50;;;;;;;8.35;4.20;;;17.70;90.30;;;;;;6184050;23;20415;-73
2023/05/21 03:44:16;;;;;;;11.85;4.68;;;17.70;90.50;;;;;;6157172;23;20146;-74
2023/05/21 03:46:43;;;;;;;9.68;4.53;;;17.70;90.50;;;;;;6183459;23;20478;-73
2023/05/21 03:49:09;;;;;;;10.70;4.63;;;17.80;90.60;;;;;;6184307;23;20072;-75
2023/05/21 03:51:37;;;;;;;9.45;4.68;;;17.70;90.60;;;;;;6184014;23;20000;-74
2023/05/21 03:54:02;;;;;;;7.93;4.47;;;17.70;90.70;;;;;;6157622;23;20024;-74
2023/05/21 03:56:28;;;;;;;8.30;4.60;;;17.60;90.70;;;;;;6183649;23;20419;-75
2023/05/21 03:58:54;;;;;;;10.63;4.25;;;17.60;90.90;;;;;;6183374;23;20021;-75
2023/05/21 04:01:19;;;;;;;9.95;4.30;;;17.60;91.00;;;;;;6183717;23;20447;-75
2023/05/21 04:03:45;;;;;;;7.85;4.28;;;17.60;90.90;;;;;;6156769;23;20031;-75
2023/05/21 04:06:11;;;;;;;10.13;4.30;;;17.50;91.00;;;;;;6183500;23;20068;-74
2023/05/21 04:08:36;;;;;;;7.60;4.07;;;17.50;91.10;;;;;;6183166;23;20460;-74
2023/05/21 04:11:02;;;;;;;9.60;4.15;;;17.50;91.10;;;;;;6183430;23;20005;-74
2023/05/21 04:13:28;;;;;;;9.45;4.50;;;17.50;91.20;;;;;;6183481;23;20156;-74
2023/05/21 04:15:54;;;;;;;11.40;4.10;;;17.60;91.30;;;;;;6183016;23;20149;-75
2023/05/21 04:18:22;;;;;;;8.90;4.70;;;17.60;91.30;;;;;;6183708;23;20012;-74
2023/05/21 04:20:48;;;;;;;6.30;4.10;;;17.60;91.40;;;;;;6183522;23;20490;-75
2023/05/21 04:23:15;;;;;;;9.57;4.40;;;17.60;91.40;;;;;;6157890;23;20009;-74
2023/05/21 04:25:41;;;;;;;10.13;4.20;;;17.60;91.50;;;;;;6183700;23;20012;-73
2023/05/21 04:28:07;;;;;;;7.75;4.13;;;17.70;91.50;;;;;;6183161;23;20005;-74
2023/05/21 04:30:36;;;;;;;11.20;4.15;;;17.60;91.40;;;;;;6157001;23;20343;-74
2023/05/21 04:33:02;;;;;;;10.90;4.28;;;17.60;91.30;;;;;;6183593;23;20009;-74
2023/05/21 04:35:28;;;;;;;9.80;4.47;;;17.60;91.30;;;;;;6183422;23;20009;-74
2023/05/21 04:37:53;;;;;;;6.35;4.10;;;17.60;91.20;;;;;;6183771;23;20005;-75
2023/05/21 04:40:23;;;;;;;9.02;4.07;;;17.70;91.20;;;;;;6184058;23;20048;-74
2023/05/21 04:42:51;;;;;;;8.20;4.13;;;17.80;91.10;;;;;;6158287;23;20042;-74
2023/05/21 04:45:16;;;;;;;9.68;4.38;;;17.80;91.00;;;;;;6185707;23;20004;-73
2023/05/21 04:47:42;;;;;;;9.18;4.35;;;17.80;90.90;;;;;;6185928;23;20005;-74
2023/05/21 04:50:09;;;;;;;10.23;4.50;;;17.80;90.80;;;;;;6185222;23;20012;-74
2023/05/21 04:52:35;;;;;;;11.60;4.95;;;17.80;90.70;;;;;;6185418;23;20013;-74
2023/05/21 04:55:02;;;;;;;8.43;4.45;;;17.90;90.70;;;;;;6185556;23;20077;-75
2023/05/21 04:57:28;;;;;;;9.23;3.80;;;17.90;90.60;;;;;;6185192;23;20280;-73
2023/05/21 04:59:55;;;;;;;8.68;4.20;;;17.90;90.60;;;;;;6185379;23;20009;-74
2023/05/21 05:02:20;;;;;;;10.40;3.70;;;18.00;90.60;;;;;;6185884;23;20029;-75
2023/05/21 05:04:46;;;;;;;6.95;4.07;;;18.00;90.50;;;;;;6185477;23;20040;-75
2023/05/21 05:07:12;;;;;;;10.18;3.70;;;18.00;90.70;;;;;;6184809;23;19997;-74
2023/05/21 05:09:38;;;;;;;8.23;4.20;;;18.00;90.30;;;;;;6185309;23;20004;-75
2023/05/21 05:12:04;;;;;;;7.78;3.90;;;18.10;90.30;;;;;;6185244;23;20005;-74
2023/05/21 05:14:29;;;;;;;8.73;3.70;;;18.10;90.30;;;;;;6185771;23;20005;-72
2023/05/21 05:16:59;;;;;;;8.20;3.90;;;18.10;90.40;;;;;;6185520;23;20517;-75
2023/05/21 05:19:25;;;;;;;11.77;4.30;;;18.10;90.20;;;;;;6185168;23;20009;-75
2023/05/21 05:21:51;;;;;;;10.38;3.70;;;18.00;90.00;;;;;;6185610;23;20019;-75
2023/05/21 05:24:16;;;;;;;7.80;3.80;;;18.00;90.00;;;;;;6185308;23;20029;-75
2023/05/21 05:26:42;;;;;;;8.18;3.90;;;18.00;89.90;;;;;;6185702;23;20009;-74
2023/05/21 05:29:08;;;;;;;6.30;3.75;;;18.00;89.70;;;;;;6184717;23;19993;-73
2023/05/21 05:31:33;;;;;;;8.70;3.97;;;18.00;89.40;;;;;;6185145;23;20008;-75
2023/05/21 05:33:59;;;;;;;6.80;3.92;;;18.10;89.50;;;;;;6185197;23;20016;-74
2023/05/21 05:36:25;;;;;;;9.95;4.00;;;18.00;89.40;;;;;;6185763;23;20431;-75
2023/05/21 05:38:51;;;;;;;6.28;3.63;;;18.00;89.10;;;;;;6185414;23;20009;-75
2023/05/21 05:41:17;;;;;;;7.32;3.92;;;18.10;89.10;;;;;;6185324;23;20008;-74
2023/05/21 05:43:43;;;;;;;7.97;4.50;;;18.00;89.20;;;;;;6185149;23;20004;-73
2023/05/21 05:46:08;;;;;;;7.60;4.00;;;18.00;89.10;;;;;;6185461;23;20004;-75
2023/05/21 05:48:34;;;;;;;8.77;4.40;;;18.00;88.90;;;;;;6185396;23;20012;-73
2023/05/21 05:51:00;;;;;;;9.02;4.72;;;18.00;88.70;;;;;;6185604;23;19997;-76
2023/05/21 05:53:26;;;;;;;8.75;3.95;;;18.00;88.50;;;;;;6185078;23;20088;-75
2023/05/21 05:55:52;;;;;;;8.02;3.65;;;18.10;88.40;;;;;;6184496;23;20372;-74
2023/05/21 05:58:18;;;;;;;8.73;4.53;;;18.10;88.20;;;;;;6184769;23;20011;-73
2023/05/21 06:00:43;;;;;;;11.13;3.88;;;18.10;88.00;;;;;;6185239;23;19997;-74
2023/05/21 06:03:10;;;;;;;7.97;4.32;;;18.10;87.60;;;;;;6184543;23;20101;-74
2023/05/21 06:05:36;;;;;;;7.30;3.80;;;18.20;87.60;;;;;;6184149;23;20032;-75
2023/05/21 06:08:02;;;;;;;9.52;3.85;;;18.20;87.40;;;;;;6184550;23;20010;-74
2023/05/21 06:10:28;;;;;;;8.00;4.80;;;18.30;87.60;;;;;;6184330;23;20008;-73
2023/05/21 06:12:53;;;;;;;9.30;4.00;;;18.30;87.40;;;;;;6157345;23;20027;-73
2023/05/21 06:15:19;;;;;;;8.27;3.67;;;18.30;86.90;;;;;;6184246;23;19997;-73
2023/05/21 06:17:45;;;;;;;7.90;4.50;;;18.40;87.00;;;;;;6184197;23;20304;-74
2023/05/21 06:20:11;;;;;;;9.75;5.18;;;18.40;86.90;;;;;;6184209;23;20403;-74
2023/05/21 06:22:37;;;;;;;8.63;5.07;;;18.50;86.90;;;;;;6183912;23;19997;-75
2023/05/21 06:25:03;;;;;;;9.07;3.97;;;18.60;86.60;;;;;;6157339;23;20025;-74
2023/05/21 06:27:29;;;;;;;6.70;3.83;;;18.60;86.10;;;;;;6183940;23;20071;-75
2023/05/21 06:29:56;;;;;;;8.07;3.95;;;18.70;85.90;;;;;;6184256;23;20005;-74
2023/05/21 06:32:22;;;;;;;8.23;4.05;;;18.70;85.80;;;;;;6184078;23;20118;-75
2023/05/21 06:34:47;;;;;;;7.68;3.90;;;18.80;85.50;;;;;;6157545;23;20446;-75
2023/05/21 06:37:13;;;;;;;9.85;3.60;;;18.80;85.40;;;;;;6157250;23;20375;-74
2023/05/21 06:39:39;;;;;;;7.00;3.33;;;18.90;85.40;;;;;;6183833;23;20040;-74
2023/05/21 06:42:05;;;;;;;7.25;3.75;;;18.90;85.40;;;;;;6183669;23;20016;-75
2023/05/21 06:44:30;;;;;;;6.57;4.15;;;18.90;85.40;;;;;;6183776;23;20009;-74
2023/05/21 06:46:56;;;;;;;7.47;3.90;;;19.00;85.30;;;;;;6183963;23;20415;-74
2023/05/21 06:49:22;;;;;;;7.20;3.95;;;19.10;85.20;;;;;;6183715;23;20008;-76
2023/05/21 06:51:47;;;;;;;6.97;3.67;;;19.10;85.00;;;;;;6183931;23;20065;-74
2023/05/21 06:54:13;;;;;;;7.00;4.30;;;19.20;84.80;;;;;;6183599;23;20312;-74
2023/05/21 06:56:39;;;;;;;8.85;4.75;;;19.30;84.70;;;;;;6183767;23;20339;-74
2023/05/21 06:59:05;;;;;;;9.60;4.25;;;19.40;84.20;;;;;;6183800;23;20376;-74
2023/05/21 07:01:31;;;;;;;10.02;4.50;;;19.50;83.90;;;;;;6183482;23;20081;-75
2023/05/21 07:03:56;;;;;;;6.15;3.40;;;19.60;83.10;;;;;;6183419;23;20025;-78
2023/05/21 07:06:22;;;;;;;8.70;3.58;;;19.70;82.80;;;;;;6183484;23;19998;-75
2023/05/21 07:08:48;;;;;;;8.02;3.85;;;19.80;82.40;;;;;;6183591;23;20009;-75
2023/05/21 07:11:14;;;;;;;5.72;3.70;;;19.90;81.90;;;;;;6156666;23;20037;-75
2023/05/21 07:13:40;;;;;;;10.82;3.78;;;20.10;81.50;;;;;;6183000;23;20084;-74
2023/05/21 07:16:06;;;;;;;7.10;3.83;;;20.20;81.90;;;;;;6183341;23;20377;-75
2023/05/21 07:18:32;;;;;;;11.80;4.18;;;20.40;81.00;;;;;;6183361;23;20028;-73
2023/05/21 07:20:58;;;;;;;7.82;4.15;;;20.40;80.40;;;;;;6183183;23;20047;-75
2023/05/21 07:23:24;;;;;;;10.55;3.92;;;20.50;80.30;;;;;;6183343;23;20013;-75
2023/05/21 07:25:49;;;;;;;8.15;3.75;;;20.50;80.10;;;;;;6183516;23;20029;-76
2023/05/21 07:28:15;;;;;;;8.27;4.00;;;20.60;80.00;;;;;;6183563;23;20001;-75
2023/05/21 07:30:41;;;;;;;9.38;4.38;;;20.70;80.20;;;;;;6183186;23;20011;-75
2023/05/21 07:33:06;;;;;;;10.20;4.32;;;20.70;79.70;;;;;;6183084;23;20111;-76
2023/05/21 07:35:32;;;;;;;10.15;4.25;;;20.90;79.70;;;;;;6183177;23;20392;-74
2023/05/21 07:37:58;;;;;;;13.00;4.20;;;20.90;79.80;;;;;;6183162;23;20024;-73
2023/05/21 07:40:23;;;;;;;11.68;4.60;;;20.90;80.00;;;;;;6183203;23;19997;-73
2023/05/21 07:42:49;;;;;;;11.27;4.72;;;21.00;80.10;;;;;;6156501;23;20115;-73
2023/05/21 07:45:15;;;;;;;10.23;4.72;;;21.00;80.00;;;;;;6183555;23;20425;-77
2023/05/21 07:47:41;;;;;;;10.50;4.25;;;21.10;80.00;;;;;;6183249;23;20028;-71
2023/05/21 07:50:07;;;;;;;9.32;4.28;;;21.40;79.70;;;;;;6132310;23;20012;-75
2023/05/21 07:52:33;;;;;;;14.98;10.20;;;21.60;79.10;;;;;;6183138;23;20097;-70
2023/05/21 07:55:00;;;;;;;9.65;4.30;;;21.80;78.80;;;;;;6183652;23;20132;-71
2023/05/21 07:57:27;;;;;;;9.20;4.13;;;21.90;78.00;;;;;;6183329;23;20055;-69
2023/05/21 07:59:52;;;;;;;11.15;4.65;;;22.00;77.80;;;;;;6183142;23;20028;-69
2023/05/21 08:02:18;;;;;;;12.32;4.80;;;22.10;77.40;;;;;;6183346;23;19997;-70
2023/05/21 08:04:43;;;;;;;9.25;4.25;;;22.20;77.40;;;;;;6183175;23;20025;-71
2023/05/21 08:07:09;;;;;;;7.60;4.20;;;22.20;77.10;;;;;;6183461;23;20399;-72
2023/05/21 08:09:35;;;;;;;7.70;4.32;;;22.20;77.10;;;;;;6183321;23;20009;-70
2023/05/21 08:12:01;;;;;;;9.23;4.07;;;22.30;76.90;;;;;;6183347;23;20077;-71
2023/05/21 08:14:26;;;;;;;10.70;3.80;;;22.30;76.50;;;;;;6182627;23;20019;-72
2023/05/21 08:16:52;;;;;;;8.60;3.42;;;22.40;75.90;;;;;;6182222;23;20001;-70
2023/05/21 08:19:18;;;;;;;7.22;3.67;;;22.50;75.20;;;;;;6183027;23;20008;-70
2023/05/21 08:21:44;;;;;;;11.93;3.90;;;22.50;74.90;;;;;;6182593;23;20001;-70
2023/05/21 08:24:09;;;;;;;9.82;4.03;;;22.60;75.70;;;;;;6155898;23;20009;-68
2023/05/21 08:26:35;;;;;;;8.38;3.72;;;22.60;75.60;;;;;;6155782;23;20344;-70
2023/05/21 08:29:01;;;;;;;10.63;3.47;;;22.70;75.40;;;;;;6182797;23;20060;-70
2023/05/21 08:31:27;;;;;;;8.40;3.88;;;22.70;75.20;;;;;;6156542;23;19997;-69
2023/05/21 08:33:55;;;;;;;9.85;3.40;;;22.70;74.40;;;;;;6182799;23;20093;-70
2023/05/21 08:36:20;;;;;;;10.27;4.07;;;22.50;74.00;;;;;;6182755;23;20052;-69
2023/05/21 08:38:46;;;;;;;8.15;3.58;;;22.50;73.20;;;;;;6182545;23;20032;-70
2023/05/21 08:41:12;;;;;;;10.55;3.70;;;22.50;73.20;;;;;;6182657;23;20001;-67
2023/05/21 08:43:38;;;;;;;10.75;4.22;;;22.50;72.90;;;;;;6182833;23;20001;-70
2023/05/21 08:46:07;;;;;;;9.88;4.10;;;22.40;72.90;;;;;;6182520;23;20005;-69
2023/05/21 08:48:35;;;;;;;8.80;3.70;;;22.50;73.00;;;;;;6182516;23;20440;-69
2023/05/21 08:51:01;;;;;;;10.70;3.90;;;22.40;73.10;;;;;;6182832;23;19997;-71
2023/05/21 08:53:27;;;;;;;7.20;3.05;;;22.40;72.70;;;;;;6182664;23;20285;-71
2023/05/21 08:55:54;;;;;;;7.88;3.50;;;22.50;72.80;;;;;;6182266;23;20393;-70
2023/05/21 08:58:21;;;;;;;6.68;3.00;;;22.50;72.60;;;;;;6182841;23;20009;-71
2023/05/21 09:00:47;;;;;;;6.72;3.60;;;22.50;72.20;;;;;;6182771;23;19997;-70
2023/05/21 09:03:14;;;;;;;7.40;3.40;;;22.50;71.90;;;;;;6182717;23;20027;-70
2023/05/21 09:05:41;;;;;;;8.65;3.30;;;22.60;71.50;;;;;;6182530;23;20008;-71
2023/05/21 09:08:18;;;;;;;8.77;3.42;;;22.60;71.60;;;;;;6182617;23;20009;-73
2023/05/21 09:10:51;;;;;;;9.80;3.53;;;22.70;71.60;;;;;;6182921;23;20013;-69
2023/05/21 09:13:18;;;;;;;7.32;2.70;;;22.70;71.40;;;;;;6182495;23;20147;-69
2023/05/21 09:15:45;;;;;;;8.68;3.28;;;22.70;70.10;;;;;;6182302;23;20005;-70
2023/05/21 09:18:11;;;;;;;10.27;4.65;;;22.70;70.40;;;;;;6182909;23;20063;-70
2023/05/21 09:20:38;;;;;;;10.13;3.78;;;22.70;70.40;;;;;;6183059;23;20284;-68
2023/05/21 09:23:11;;;;;;;8.20;3.50;;;22.70;70.10;;;;;;6182866;23;20012;-70
2023/05/21 09:25:37;;;;;;;5.82;2.88;;;22.70;70.00;;;;;;6183531;23;20029;-70
2023/05/21 09:28:10;;;;;;;7.90;2.65;;;22.60;69.00;;;;;;6182877;23;20040;-70
2023/05/21 09:30:36;;;;;;;9.48;3.42;;;22.60;68.20;;;;;;6184057;23;20181;-71
2023/05/21 09:33:02;;;;;;;6.18;2.88;;;22.60;69.00;;;;;;6184006;23;20074;-72
2023/05/21 09:35:27;;;;;;;6.35;3.05;;;22.60;67.90;;;;;;6184594;23;20001;-70
2023/05/21 09:37:56;;;;;;;6.85;2.85;;;22.60;67.00;;;;;;6184023;23;20005;-70
2023/05/21 09:40:22;;;;;;;5.53;2.80;;;22.70;66.80;;;;;;6184168;23;19997;-74
2023/05/21 09:42:49;;;;;;;5.72;2.80;;;22.70;66.60;;;;;;6184136;23;20328;-72
2023/05/21 09:45:20;;;;;;;6.90;3.40;;;22.70;65.30;;;;;;6184048;23;20081;-73
2023/05/21 09:47:47;;;;;;;7.15;3.40;;;22.80;65.20;;;;;;6184065;23;20005;-72
2023/05/21 09:50:20;;;;;;;7.47;3.53;;;22.80;65.20;;;;;;6184587;23;20020;-69
2023/05/21 09:52:49;;;;;;;6.57;3.67;;;22.90;64.90;;;;;;6184356;23;20005;-70
2023/05/21 09:55:15;;;;;;;6.05;2.85;;;23.00;65.50;;;;;;6184313;23;20243;-73
2023/05/21 09:57:42;;;;;;;10.02;3.20;;;23.10;65.10;;;;;;6184348;23;20001;-72
2023/05/21 10:00:16;;;;;;;5.82;3.30;;;23.10;65.10;;;;;;6184311;23;20008;-73
2023/05/21 10:02:45;;;;;;;8.50;3.45;;;23.20;63.60;;;;;;6183997;23;20466;-71
2023/05/21 10:05:13;;;;;;;6.88;3.13;;;23.20;63.70;;;;;;6184210;23;20001;-71
2023/05/21 10:07:47;;;;;;;10.75;3.58;;;23.20;63.70;;;;;;6184285;23;20012;-71
2023/05/21 10:10:13;;;;;;;7.03;3.72;;;23.30;63.00;;;;;;6183773;23;20001;-70
2023/05/21 10:12:43;;;;;;;10.23;3.30;;;23.20;63.30;;;;;;6183808;23;20024;-70
2023/05/21 10:15:15;;;;;;;7.88;3.03;;;23.30;63.20;;;;;;6184572;23;20016;-72
2023/05/21 10:17:45;;;;;;;6.93;3.53;;;23.30;63.10;;;;;;6184883;23;20331;-69
2023/05/21 10:20:11;;;;;;;10.27;4.00;;;23.40;63.80;;;;;;6184371;23;20415;-69
2023/05/21 10:22:38;;;;;;;6.00;3.35;;;23.50;62.70;;;;;;6184495;23;20009;-70
2023/05/21 10:25:06;;;;;;;9.18;3.22;;;23.50;62.60;;;;;;6184599;23;20013;-71
2023/05/21 10:27:33;;;;;;;6.43;3.65;;;23.50;62.40;;;;;;6184572;23;20008;-71
2023/05/21 10:29:59;;;;;;;8.50;3.50;;;23.60;63.00;;;;;;6183894;23;20008;-70
2023/05/21 10:32:26;;;;;;;5.35;3.53;;;23.70;62.80;;;;;;6184049;23;20044;-71
2023/05/21 10:34:56;;;;;;;7.20;3.75;;;23.70;62.70;;;;;;6184413;23;20115;-71
2023/05/21 10:37:26;;;;;;;10.13;3.42;;;23.80;63.60;;;;;;6184537;23;20028;-72
2023/05/21 10:39:52;;;;;;;6.82;3.40;;;23.90;62.30;;;;;;6184300;23;20001;-72
2023/05/21 10:42:30;;;;;;;11.35;3.60;;;23.90;62.30;;;;;;6184220;23;20076;-74
2023/05/21 10:45:18;;;;;;;8.00;3.53;;;24.00;61.50;;;;;;6184114;23;20001;-73
2023/05/21 10:48:02;;;;;;;8.18;4.00;;;24.00;61.50;;;;;;6184702;23;20076;-75
2023/05/21 10:50:49;;;;;;;10.05;3.90;;;24.10;61.80;;;;;;6184370;23;20036;-72
2023/05/21 10:53:20;;;;;;;5.93;3.30;;;24.20;61.30;;;;;;6184229;23;20462;-71
2023/05/21 10:56:05;;;;;;;8.15;3.42;;;24.30;60.40;;;;;;6183628;23;20072;-70
2023/05/21 10:58:57;;;;;;;5.68;3.42;;;24.40;59.90;;;;;;6184422;23;20020;-73
2023/05/21 11:01:27;;;;;;;7.13;3.83;;;24.50;59.60;;;;;;6184064;23;20005;-73
2023/05/21 11:03:54;;;;;;;8.30;3.70;;;24.50;59.20;;;;;;6183716;23;20394;-72
2023/05/21 11:06:25;;;;;;;6.88;3.47;;;24.50;59.20;;;;;;6184203;23;19997;-73
2023/05/21 11:08:54;;;;;;;8.48;3.47;;;24.50;59.50;;;;;;6184045;23;20100;-73
2023/05/21 11:11:44;;;;;;;8.10;3.63;;;24.60;59.50;;;;;;6184432;23;20404;-78
2023/05/21 11:14:37;;;;;;;7.88;4.00;;;24.70;59.50;;;;;;6184291;23;20313;-75
2023/05/21 11:17:15;;;;;;;6.50;3.43;;;24.70;60.70;;;;;;6183986;23;20050;-72
2023/05/21 11:19:42;;;;;;;8.18;3.67;;;24.80;60.10;;;;;;6184448;23;20450;-71
2023/05/21 11:22:22;;;;;;;6.30;3.80;;;24.90;59.50;;;;;;6184258;23;20020;-73
2023/05/21 11:24:48;;;;;;;9.57;4.40;;;25.00;59.00;;;;;;6183512;23;20080;-74
2023/05/21 11:27:32;;;;;;;6.65;3.80;;;25.00;58.40;;;;;;6182403;23;20001;-77
2023/05/21 11:29:58;;;;;;;;;;;25.10;58.30;;;;;;6184491;23;20023;-71
2023/05/21 11:32:24;;;;;;;12.32;4.40;;;25.20;58.50;;;;;;6184545;23;19924;-80
2023/05/21 11:34:50;;;;;;;8.85;3.67;;;25.30;58.90;;;;;;6184669;23;20029;-80
2023/05/21 11:37:39;;;;;;;7.78;4.20;;;25.40;59.30;;;;;;6184376;23;20088;-80
2023/05/21 11:40:18;;;;;;;10.45;3.95;;;25.50;58.70;;;;;;6183897;23;20455;-73
2023/05/21 11:42:48;;;;;;;8.88;3.83;;;25.60;59.30;;;;;;6184433;23;20009;-80
2023/05/21 11:45:16;;;;;;;8.70;3.58;;;25.70;59.20;;;;;;6184098;23;19997;-80
2023/05/21 11:47:43;;;;;;;8.75;3.67;;;25.90;59.00;;;;;;6184420;23;20012;-79
2023/05/21 11:50:13;;;;;;;8.30;4.22;;;26.00;57.70;;;;;;6182024;23;20001;-80
2023/05/21 11:52:40;;;;;;;8.65;3.92;;;26.10;56.80;;;;;;6133539;23;20105;-78
2023/05/21 11:55:06;;;;;;;9.30;4.63;;;26.30;57.80;;;;;;6184548;23;20009;-81
2023/05/21 11:57:32;;;;;;;9.77;4.18;;;26.50;57.60;;;;;;6184296;23;20079;-81
2023/05/21 12:00:00;;;;;;;7.80;3.83;;;26.60;56.20;;;;;;6184474;23;20028;-82
2023/05/21 12:02:27;;;;;;;11.15;4.05;;;26.60;55.90;;;;;;6185189;23;20001;-82
2023/05/21 12:04:53;;;;;;;7.25;3.95;;;26.60;55.60;;;;;;6184292;23;20021;-81
2023/05/21 12:07:19;;;;;;;11.73;3.80;;;26.60;57.20;;;;;;6185284;23;20169;-82
2023/05/21 12:09:49;;;;;;;6.80;4.18;;;26.70;56.70;;;;;;6157549;23;20304;-85
2023/05/21 12:12:17;;;;;;;8.32;4.22;;;26.70;56.20;;;;;;6189737;23;20127;-82
2023/05/21 12:14:47;;;;;;;6.72;3.70;;;26.80;57.10;;;;;;6185928;23;20013;-82
2023/05/21 12:17:18;;;;;;;9.07;3.72;;;26.80;56.50;;;;;;6183817;23;20517;-81
2023/05/21 12:19:45;;;;;;;8.25;4.07;;;26.70;56.30;;;;;;6184264;23;20067;-83
2023/05/21 12:22:11;;;;;;;7.15;3.17;;;26.70;57.50;;;;;;6183550;23;19997;-83
2023/05/21 12:24:37;;;;;;;10.77;3.60;;;26.60;57.20;;;;;;6184322;23;19997;-82
2023/05/21 12:27:08;;;;;;;7.65;3.20;;;26.50;56.90;;;;;;6183956;23;20056;-78
2023/05/21 12:29:38;;;;;;;6.68;3.60;;;26.30;57.40;;;;;;6184234;23;20027;-80
2023/05/21 12:32:07;;;;;;;9.88;4.15;;;26.00;58.10;;;;;;6157543;23;20005;-78
2023/05/21 12:34:44;;;;;;;8.93;4.15;;;25.70;58.80;;;;;;6183330;23;20013;-77
2023/05/21 12:37:21;;;;;;;8.15;4.18;;;25.40;58.90;;;;;;6157436;23;20013;-82
2023/05/21 12:39:48;;;;;;;9.57;3.67;;;25.00;60.20;;;;;;6157414;23;20071;-83
2023/05/21 12:42:14;;;;;;;6.72;3.45;;;24.60;61.30;;;;;;6183544;23;20011;-84
2023/05/21 12:44:48;;;;;;;8.35;4.30;;;24.20;61.70;;;;;;6184646;23;20028;-84
2023/05/21 12:47:14;;;;;;;;;;;24.00;62.70;;;;;;6158537;23;20023;-80